Time;durP1;ratioP1;P1;durP2;ratioP2;P2;SDS_P1;SDS_P2;PMS_P1;PMS_P2;Temp;Humidity;BMP_temperature;BMP_pressure;BME280_temperature;BME280_humidity;BME280_pressure;Samples;Min_cycle;Max_cycle;Signal;HPM_P1;HPM_P2
2022/04/27 00:00:41;;;;;;;1.65;1.00;;;15.40;62.10;;;;;;5001297;28;20041;-77
2022/04/27 00:03:15;;;;;;;1.88;0.98;;;15.40;62.10;;;;;;4984129;28;20335;-79
2022/04/27 00:05:42;;;;;;;1.63;1.00;;;15.40;62.10;;;;;;4978135;28;20034;-79
2022/04/27 00:08:16;;;;;;;1.38;1.00;;;15.40;62.10;;;;;;4978532;28;20374;-77
2022/04/27 00:10:45;;;;;;;2.22;1.05;;;15.40;62.00;;;;;;4969457;28;20516;-79
2022/04/27 00:13:15;;;;;;;1.73;1.00;;;15.40;62.10;;;;;;4970539;28;20217;-78
2022/04/27 00:15:43;;;;;;;2.75;1.00;;;15.40;62.10;;;;;;4969189;28;20378;-79
2022/04/27 00:18:15;;;;;;;1.88;1.13;;;15.40;62.10;;;;;;4970874;28;20049;-78
2022/04/27 00:20:56;;;;;;;2.00;1.30;;;15.40;62.10;;;;;;4955920;28;20409;-80
2022/04/27 00:23:26;;;;;;;1.50;0.93;;;15.40;62.00;;;;;;4979176;28;20105;-77
2022/04/27 00:26:05;;;;;;;1.73;1.10;;;15.40;62.10;;;;;;4989644;28;20591;-77
2022/04/27 00:28:33;;;;;;;1.83;1.10;;;15.40;62.90;;;;;;4992859;28;20053;-78
2022/04/27 00:31:00;;;;;;;1.60;0.93;;;15.40;62.10;;;;;;4991908;28;20086;-79
2022/04/27 00:33:36;;;;;;;1.83;1.10;;;15.40;62.10;;;;;;4986978;28;20061;-78
2022/04/27 00:36:03;;;;;;;1.95;1.00;;;15.40;62.00;;;;;;4980428;28;20070;-79
2022/04/27 00:38:50;;;;;;;1.52;1.10;;;15.40;62.00;;;;;;4974676;28;20062;-78
2022/04/27 00:41:16;;;;;;;1.67;1.02;;;15.40;62.00;;;;;;4980411;28;20042;-78
2022/04/27 00:43:57;;;;;;;1.52;1.05;;;15.40;62.00;;;;;;4972301;28;20054;-79
2022/04/27 00:46:25;;;;;;;1.90;1.10;;;15.40;62.00;;;;;;4977616;28;20247;-79
2022/04/27 00:48:52;;;;;;;1.55;0.98;;;15.40;62.00;;;;;;4982438;28;20041;-79
2022/04/27 00:51:25;;;;;;;1.83;1.10;;;15.40;62.00;;;;;;4977304;28;20299;-78
2022/04/27 00:53:59;;;;;;;1.30;1.05;;;15.40;62.00;;;;;;4990045;28;20054;-81
2022/04/27 00:56:46;;;;;;;3.00;1.15;;;15.40;62.00;;;;;;5000844;28;20073;-80
2022/04/27 00:59:15;;;;;;;1.70;1.02;;;15.40;61.90;;;;;;4984846;28;20077;-78
2022/04/27 01:01:42;;;;;;;1.95;1.10;;;15.40;62.00;;;;;;4980179;28;20413;-80
2022/04/27 01:04:14;;;;;;;;;;;15.40;61.90;;;;;;4984612;28;20675;-77
2022/04/27 01:06:41;;;;;;;1.95;1.17;;;15.40;61.90;;;;;;4979814;28;20031;-78
2022/04/27 01:09:18;;;;;;;1.50;0.90;;;15.40;61.90;;;;;;4962284;28;20062;-79
2022/04/27 01:11:59;;;;;;;1.80;1.10;;;15.40;61.90;;;;;;4960349;28;20050;-79
2022/04/27 01:14:47;;;;;;;1.65;1.15;;;15.30;61.80;;;;;;4976125;28;20058;-77
2022/04/27 01:17:15;;;;;;;1.65;1.10;;;15.30;61.80;;;;;;4971534;28;20046;-76
2022/04/27 01:19:51;;;;;;;1.70;1.13;;;15.40;61.90;;;;;;4980318;28;20023;-79
2022/04/27 01:22:21;;;;;;;1.92;1.10;;;15.30;61.80;;;;;;5000378;28;20053;-76
2022/04/27 01:24:57;;;;;;;1.90;1.00;;;15.40;61.90;;;;;;4995045;28;20047;-80
2022/04/27 01:27:24;;;;;;;2.63;1.20;;;15.30;61.80;;;;;;4986419;28;20065;-80
2022/04/27 01:29:54;;;;;;;1.85;1.00;;;15.30;61.80;;;;;;4983865;28;20062;-79
2022/04/27 01:32:24;;;;;;;1.65;1.08;;;15.30;61.80;;;;;;4974142;28;20133;-78
2022/04/27 01:34:56;;;;;;;1.40;0.98;;;15.30;61.80;;;;;;4982043;28;20052;-79
2022/04/27 01:38:03;;;;;;;2.20;1.10;;;15.30;61.80;;;;;;4976844;28;20072;-77
2022/04/27 01:40:29;;;;;;;1.55;1.10;;;15.30;61.80;;;;;;4957197;28;20077;-78
2022/04/27 01:42:56;;;;;;;1.38;1.00;;;15.30;61.80;;;;;;4976239;28;20046;-79
2022/04/27 01:45:29;;;;;;;1.70;0.90;;;15.40;61.90;;;;;;4980033;28;20050;-79
2022/04/27 01:47:57;;;;;;;2.03;1.08;;;15.30;61.80;;;;;;4965473;28;20050;-79
2022/04/27 01:50:23;;;;;;;1.73;1.00;;;15.30;61.80;;;;;;4981534;28;20125;-78
2022/04/27 01:55:41;;;;;;;1.50;1.10;;;15.30;61.80;;;;;;4978491;28;20563;-80
2022/04/27 01:58:08;;;;;;;1.90;1.10;;;15.30;61.80;;;;;;4977257;28;20038;-79
2022/04/27 02:00:35;;;;;;;2.15;1.15;;;15.30;61.80;;;;;;4960425;28;20050;-79
2022/04/27 02:03:15;;;;;;;1.58;1.05;;;15.30;61.70;;;;;;4994692;28;20513;-78
2022/04/27 02:05:43;;;;;;;1.77;1.20;;;15.30;61.70;;;;;;5000606;28;20101;-77
2022/04/27 02:08:11;;;;;;;1.52;1.10;;;15.30;61.80;;;;;;4999739;28;20065;-80
2022/04/27 02:10:54;;;;;;;1.95;1.00;;;15.30;61.70;;;;;;4998951;28;20037;-81
2022/04/27 02:13:28;;;;;;;1.88;1.20;;;15.20;61.60;;;;;;4995590;28;20548;-79
2022/04/27 02:16:13;;;;;;;1.45;0.98;;;15.30;61.70;;;;;;4997255;28;20242;-78
2022/04/27 02:18:55;;;;;;;1.90;1.30;;;15.30;61.70;;;;;;5000856;28;20046;-78
2022/04/27 02:21:23;;;;;;;1.95;1.10;;;15.30;61.70;;;;;;4984675;28;20041;-79
2022/04/27 02:23:58;;;;;;;2.03;1.13;;;15.20;61.60;;;;;;4977248;28;20485;-78
2022/04/27 02:26:30;;;;;;;2.28;1.00;;;15.20;61.60;;;;;;4995482;28;20108;-78
2022/04/27 02:28:57;;;;;;;1.50;1.10;;;15.20;61.60;;;;;;4991339;28;20556;-80
2022/04/27 02:31:40;;;;;;;1.88;1.17;;;15.20;61.60;;;;;;5000023;28;20688;-81
2022/04/27 02:34:16;;;;;;;1.65;1.10;;;15.20;61.70;;;;;;4991625;28;20056;-79
2022/04/27 02:36:45;;;;;;;2.42;1.25;;;15.20;61.60;;;;;;5001017;28;20038;-80
2022/04/27 02:39:16;;;;;;;1.92;0.90;;;15.20;61.60;;;;;;4981971;28;20046;-78
2022/04/27 02:41:46;;;;;;;1.52;1.10;;;15.20;61.60;;;;;;4999648;28;20501;-79
2022/04/27 02:44:12;;;;;;;1.85;1.20;;;15.20;61.60;;;;;;5002093;28;20757;-78
2022/04/27 02:46:40;;;;;;;1.90;1.23;;;15.20;61.60;;;;;;5001906;28;20067;-83
2022/04/27 02:51:56;;;;;;;2.60;1.33;;;15.20;61.60;;;;;;4999219;28;20037;-80
2022/04/27 02:54:26;;;;;;;3.17;1.20;;;15.20;61.50;;;;;;5002817;28;20049;-78
2022/04/27 02:56:53;;;;;;;2.65;1.10;;;15.20;61.50;;;;;;5000950;28;20041;-78
2022/04/27 02:59:20;;;;;;;1.95;1.33;;;15.20;61.70;;;;;;5001303;28;20489;-78
2022/04/27 03:01:59;;;;;;;1.80;1.20;;;15.20;61.60;;;;;;4982028;28;20115;-78
2022/04/27 03:04:27;;;;;;;1.40;1.00;;;15.20;61.50;;;;;;5007318;28;20049;-79
2022/04/27 03:06:54;;;;;;;1.45;1.13;;;15.20;61.60;;;;;;5008063;28;20038;-81
2022/04/27 03:09:23;;;;;;;1.83;1.00;;;15.20;61.50;;;;;;5022886;28;20034;-79
2022/04/27 03:11:52;;;;;;;2.38;1.10;;;15.10;61.40;;;;;;5012160;28;20118;-79
2022/04/27 03:14:19;;;;;;;1.52;1.10;;;15.20;61.60;;;;;;5000208;28;20046;-79
2022/04/27 03:17:05;;;;;;;1.92;1.10;;;15.20;61.50;;;;;;5003163;28;20359;-77
2022/04/27 03:19:31;;;;;;;1.50;1.20;;;15.20;61.50;;;;;;5015405;28;20042;-81
2022/04/27 03:22:08;;;;;;;1.73;1.00;;;15.20;61.50;;;;;;5022113;28;20046;-79
2022/04/27 03:24:35;;;;;;;2.13;1.13;;;15.20;61.50;;;;;;5010667;28;20056;-80
2022/04/27 03:27:16;;;;;;;2.45;1.17;;;15.20;61.50;;;;;;4996043;28;20049;-78
2022/04/27 03:29:43;;;;;;;1.65;1.10;;;15.20;61.50;;;;;;5005841;28;20037;-77
2022/04/27 03:32:15;;;;;;;1.75;1.10;;;15.20;61.50;;;;;;4999330;28;20196;-79
2022/04/27 03:34:42;;;;;;;2.50;1.40;;;15.20;61.50;;;;;;5006129;28;20030;-76
2022/04/27 03:37:15;;;;;;;1.63;1.27;;;15.20;61.50;;;;;;4996179;28;20464;-82
2022/04/27 03:39:41;;;;;;;2.55;1.20;;;15.20;61.50;;;;;;5000929;28;20765;-77
2022/04/27 03:42:17;;;;;;;2.10;1.23;;;15.20;61.50;;;;;;4995759;28;20099;-78
2022/04/27 03:44:44;;;;;;;1.85;1.20;;;15.20;61.50;;;;;;4997912;28;20049;-78
2022/04/27 03:47:15;;;;;;;1.98;1.33;;;15.20;61.50;;;;;;4994681;28;20137;-77
2022/04/27 03:49:41;;;;;;;1.92;1.15;;;15.20;61.50;;;;;;4997704;28;20048;-78
2022/04/27 03:52:14;;;;;;;1.80;1.20;;;15.20;61.60;;;;;;4980773;28;20046;-79
2022/04/27 03:54:41;;;;;;;1.95;1.17;;;15.20;61.50;;;;;;4979475;28;20034;-77
2022/04/27 03:57:16;;;;;;;2.10;1.20;;;15.20;61.50;;;;;;4994655;28;20052;-78
2022/04/27 03:59:43;;;;;;;1.92;1.15;;;15.10;61.40;;;;;;4994762;28;20042;-80
2022/04/27 04:02:15;;;;;;;1.95;1.17;;;15.10;61.40;;;;;;4992459;28;20476;-80
2022/04/27 04:04:41;;;;;;;2.13;1.52;;;15.20;61.50;;;;;;4981715;28;20049;-77
2022/04/27 04:07:12;;;;;;;2.03;1.20;;;15.10;61.30;;;;;;5000873;28;20056;-79
2022/04/27 04:09:39;;;;;;;1.65;1.15;;;15.10;61.30;;;;;;4984764;28;20038;-77
2022/04/27 04:12:17;;;;;;;2.85;1.20;;;15.10;61.30;;;;;;5002213;28;20045;-78
2022/04/27 04:14:45;;;;;;;2.53;1.40;;;15.10;61.30;;;;;;4986791;28;20645;-79
2022/04/27 04:17:14;;;;;;;1.98;1.30;;;15.10;61.30;;;;;;4995004;28;20104;-80
2022/04/27 04:19:48;;;;;;;2.10;1.38;;;15.10;61.30;;;;;;4980984;28;20046;-79
2022/04/27 04:22:15;;;;;;;2.60;1.15;;;15.10;61.30;;;;;;5003775;28;20962;-79
2022/04/27 04:28:29;;;;;;;2.15;1.33;;;15.10;61.30;;;;;;4998996;28;20401;-77
2022/04/27 04:30:35;;;;;;;2.55;1.20;;;15.10;61.30;;;;;;4996802;28;20046;-77
2022/04/27 04:33:07;;;;;;;2.40;1.30;;;15.10;61.30;;;;;;5003041;28;20131;-78
2022/04/27 04:35:34;;;;;;;1.73;1.30;;;15.10;61.30;;;;;;4996331;28;20580;-78
2022/04/27 04:38:02;;;;;;;1.70;1.17;;;15.10;61.30;;;;;;4998984;28;20065;-78
2022/04/27 04:40:41;;;;;;;2.00;1.20;;;15.10;61.30;;;;;;4998911;28;20067;-77
2022/04/27 04:43:16;;;;;;;3.20;1.30;;;15.10;61.20;;;;;;5004468;28;20034;-77
2022/04/27 04:45:43;;;;;;;1.95;1.30;;;15.10;61.30;;;;;;4989688;28;20034;-78
2022/04/27 04:48:15;;;;;;;2.05;1.20;;;15.10;61.20;;;;;;4995623;28;20042;-77
2022/04/27 04:50:42;;;;;;;2.45;1.20;;;15.10;61.30;;;;;;4999995;28;20405;-77
2022/04/27 04:53:15;;;;;;;2.08;1.30;;;15.10;61.20;;;;;;4998679;28;20042;-77
2022/04/27 04:55:42;;;;;;;3.92;1.30;;;15.10;61.20;;;;;;4997481;28;20053;-77
2022/04/27 04:58:10;;;;;;;2.45;1.15;;;15.10;61.30;;;;;;4998559;28;20092;-77
2022/04/27 05:00:51;;;;;;;2.38;1.20;;;15.10;61.20;;;;;;4998517;28;21038;-79
2022/04/27 05:03:20;;;;;;;1.70;1.10;;;15.10;61.20;;;;;;4996200;28;20056;-81
2022/04/27 05:05:47;;;;;;;1.30;1.10;;;15.10;61.20;;;;;;5001547;28;20041;-79
2022/04/27 05:08:15;;;;;;;2.50;1.35;;;15.10;61.20;;;;;;5005176;28;20046;-76
2022/04/27 05:10:55;;;;;;;2.08;1.25;;;15.10;61.20;;;;;;5004034;28;20042;-78
2022/04/27 05:13:22;;;;;;;2.20;1.45;;;15.10;61.20;;;;;;5007450;28;20053;-79
2022/04/27 05:15:48;;;;;;;1.75;1.25;;;15.10;61.20;;;;;;5011117;28;20069;-78
2022/04/27 05:18:18;;;;;;;2.58;1.50;;;15.00;61.10;;;;;;5009492;28;20128;-77
2022/04/27 05:20:45;;;;;;;1.75;1.20;;;15.00;61.10;;;;;;5015959;28;20034;-78
2022/04/27 05:23:16;;;;;;;3.78;1.30;;;15.00;61.10;;;;;;5016012;28;20050;-78
2022/04/27 05:25:46;;;;;;;2.08;1.20;;;15.00;61.10;;;;;;4986657;28;20045;-78
2022/04/27 05:28:13;;;;;;;2.00;1.25;;;15.00;61.10;;;;;;4997789;28;20053;-76
2022/04/27 05:33:58;;;;;;;1.55;1.10;;;15.00;61.10;;;;;;4998692;28;20045;-79
2022/04/27 05:36:25;;;;;;;2.13;1.45;;;15.00;61.10;;;;;;5005195;28;20131;-79
2022/04/27 05:38:52;;;;;;;1.65;1.10;;;15.00;61.10;;;;;;4988004;28;20125;-78
2022/04/27 05:41:19;;;;;;;2.38;1.50;;;15.00;61.10;;;;;;5003822;28;20470;-76
2022/04/27 05:43:47;;;;;;;2.10;1.25;;;15.00;61.10;;;;;;5005432;28;20068;-79
2022/04/27 05:46:15;;;;;;;2.25;1.30;;;15.00;61.10;;;;;;5012428;28;20052;-77
2022/04/27 05:48:41;;;;;;;1.95;1.45;;;15.00;61.10;;;;;;5014440;28;20076;-77
2022/04/27 05:51:12;;;;;;;2.40;1.50;;;15.00;61.10;;;;;;5020484;28;20056;-77
2022/04/27 05:53:48;;;;;;;2.47;1.38;;;15.00;61.10;;;;;;5008677;28;20667;-77
2022/04/27 05:56:15;;;;;;;1.90;1.40;;;15.00;61.10;;;;;;5004265;28;20062;-78
2022/04/27 05:58:51;;;;;;;2.28;1.25;;;15.00;61.10;;;;;;5003419;28;20040;-78
2022/04/27 06:01:21;;;;;;;2.42;1.23;;;15.00;61.10;;;;;;5001251;28;20049;-81
2022/04/27 06:03:48;;;;;;;2.15;1.30;;;15.00;61.10;;;;;;4992566;28;20056;-76
2022/04/27 06:06:19;;;;;;;1.95;1.40;;;15.00;61.10;;;;;;4984350;28;20077;-79
2022/04/27 06:08:55;;;;;;;1.90;1.15;;;15.00;61.10;;;;;;5001910;28;20034;-79
2022/04/27 06:11:25;;;;;;;2.03;1.27;;;15.00;61.10;;;;;;5008123;28;20041;-78
2022/04/27 06:13:55;;;;;;;2.47;1.30;;;15.00;61.80;;;;;;4994361;28;20041;-80
2022/04/27 06:16:40;;;;;;;2.00;1.20;;;15.00;61.10;;;;;;5005005;28;20565;-79
2022/04/27 06:19:11;;;;;;;2.03;1.30;;;15.00;61.00;;;;;;4985265;28;20049;-79
2022/04/27 06:21:58;;;;;;;2.78;1.65;;;15.00;61.10;;;;;;5001257;28;20488;-77
2022/04/27 06:24:37;;;;;;;4.18;1.40;;;15.00;61.10;;;;;;5002618;28;20646;-79
2022/04/27 06:27:07;;;;;;;2.60;1.27;;;15.00;61.10;;;;;;5006413;28;20057;-79
2022/04/27 06:29:46;;;;;;;2.85;1.33;;;15.00;61.10;;;;;;5002267;28;20049;-80
2022/04/27 06:32:15;;;;;;;2.20;1.30;;;15.00;61.00;;;;;;4980765;28;20049;-79
2022/04/27 06:34:42;;;;;;;2.45;1.30;;;15.20;61.20;;;;;;4997560;28;20044;-80
2022/04/27 06:37:16;;;;;;;3.38;1.33;;;15.00;61.00;;;;;;5003001;28;20497;-81
2022/04/27 06:39:45;;;;;;;2.78;1.27;;;15.10;61.10;;;;;;4992081;28;20676;-78
2022/04/27 06:42:15;;;;;;;1.63;1.20;;;15.10;61.00;;;;;;4998683;28;20038;-77
2022/04/27 06:44:43;;;;;;;2.72;1.20;;;15.10;61.10;;;;;;5002470;28;20046;-77
2022/04/27 06:47:13;;;;;;;2.08;1.40;;;15.10;61.10;;;;;;4994731;28;20061;-79
2022/04/27 06:49:51;;;;;;;1.92;1.10;;;15.10;61.10;;;;;;5002419;28;20042;-77
2022/04/27 06:52:32;;;;;;;2.55;1.40;;;15.10;61.00;;;;;;5003025;28;20060;-78
2022/04/27 06:54:59;;;;;;;2.25;1.30;;;15.10;61.10;;;;;;5002370;28;20545;-78
2022/04/27 06:57:26;;;;;;;2.17;1.45;;;15.10;61.00;;;;;;4996845;28;20108;-76
2022/04/27 06:59:55;;;;;;;1.90;1.15;;;15.10;61.00;;;;;;5001854;28;20045;-76
2022/04/27 07:02:23;;;;;;;1.98;1.15;;;15.10;61.00;;;;;;4997938;28;20050;-78
2022/04/27 07:04:55;;;;;;;1.83;1.10;;;15.10;61.00;;;;;;4980459;28;20639;-76
2022/04/27 07:07:39;;;;;;;2.05;1.20;;;15.10;61.00;;;;;;4988492;28;20504;-77
2022/04/27 07:10:17;;;;;;;1.80;1.30;;;15.10;60.90;;;;;;5016783;28;20045;-78
2022/04/27 07:12:47;;;;;;;2.25;1.40;;;15.10;60.90;;;;;;5010586;28;20053;-80
2022/04/27 07:15:15;;;;;;;3.25;1.13;;;15.10;60.90;;;;;;5021157;28;20064;-78
2022/04/27 07:17:51;;;;;;;2.58;1.60;;;15.10;60.90;;;;;;5007580;28;20038;-79
2022/04/27 07:20:19;;;;;;;2.47;1.20;;;15.10;61.00;;;;;;4988768;28;20054;-78
2022/04/27 07:22:47;;;;;;;2.38;1.38;;;15.10;61.00;;;;;;5003166;28;20050;-78
2022/04/27 07:25:18;;;;;;;2.53;1.40;;;15.10;60.90;;;;;;4985405;28;20398;-78
2022/04/27 07:27:45;;;;;;;1.92;1.10;;;15.20;61.10;;;;;;4995846;28;20117;-77
2022/04/27 07:30:15;;;;;;;1.98;1.23;;;15.10;60.90;;;;;;4995427;28;20041;-81
2022/04/27 07:32:42;;;;;;;1.95;1.15;;;15.10;60.90;;;;;;5002800;28;20030;-77
2022/04/27 07:35:18;;;;;;;2.53;1.38;;;15.20;61.00;;;;;;5002198;28;20069;-78
2022/04/27 07:37:55;;;;;;;2.58;1.27;;;15.20;61.00;;;;;;4997081;28;20054;-79
2022/04/27 07:40:22;;;;;;;2.42;1.30;;;15.20;61.10;;;;;;4998727;28;20038;-77
2022/04/27 07:42:49;;;;;;;3.40;1.30;;;15.20;61.00;;;;;;4982867;28;20045;-78
2022/04/27 07:45:16;;;;;;;2.33;1.30;;;15.20;60.90;;;;;;4994202;28;20713;-79
2022/04/27 07:47:45;;;;;;;1.80;1.20;;;15.20;61.30;;;;;;4983224;28;20042;-79
2022/04/27 07:50:13;;;;;;;1.90;1.30;;;15.20;61.00;;;;;;4983522;28;20046;-78
2022/04/27 07:52:45;;;;;;;1.90;1.30;;;15.20;61.00;;;;;;5002940;28;20038;-77
2022/04/27 07:55:16;;;;;;;3.10;1.30;;;15.20;60.90;;;;;;5006173;28;20061;-77
2022/04/27 07:57:45;;;;;;;2.42;1.35;;;15.20;60.90;;;;;;4988509;28;20256;-79
2022/04/27 08:00:13;;;;;;;1.63;1.30;;;15.20;61.00;;;;;;5007875;28;20045;-76
2022/04/27 08:02:41;;;;;;;2.08;1.30;;;15.20;61.00;;;;;;4998015;28;20141;-76
2022/04/27 08:05:15;;;;;;;2.85;1.40;;;15.20;60.80;;;;;;5001923;28;20050;-78
2022/04/27 08:07:46;;;;;;;1.70;1.10;;;15.20;60.90;;;;;;4975619;28;20050;-76
2022/04/27 08:10:18;;;;;;;2.50;1.20;;;15.30;61.00;;;;;;4984180;28;20096;-78
2022/04/27 08:12:48;;;;;;;2.13;1.30;;;15.20;60.90;;;;;;4992135;28;20042;-78
2022/04/27 08:15:16;;;;;;;2.67;1.10;;;15.20;60.90;;;;;;5003333;28;20052;-80
2022/04/27 08:17:54;;;;;;;2.65;1.23;;;15.30;61.00;;;;;;4984096;28;20721;-77
2022/04/27 08:23:17;;;;;;;2.88;1.30;;;15.30;61.00;;;;;;4987149;28;20512;-78
2022/04/27 08:25:47;;;;;;;1.73;1.10;;;15.20;60.70;;;;;;4997528;28;20056;-76
2022/04/27 08:28:16;;;;;;;2.03;1.10;;;15.30;61.00;;;;;;5016431;28;20056;-77
2022/04/27 08:30:45;;;;;;;2.50;1.27;;;15.30;61.10;;;;;;5002227;28;20046;-78
2022/04/27 08:33:14;;;;;;;2.08;1.20;;;15.30;61.00;;;;;;4998119;28;20138;-79
2022/04/27 08:35:57;;;;;;;2.38;1.17;;;15.30;61.10;;;;;;4991082;28;20728;-77
2022/04/27 08:38:28;;;;;;;2.80;1.23;;;15.30;61.00;;;;;;4999570;28;20042;-76
2022/04/27 08:40:59;;;;;;;1.83;1.00;;;15.30;60.90;;;;;;5000787;28;20048;-77
2022/04/27 08:43:36;;;;;;;2.22;1.23;;;15.30;60.90;;;;;;4999249;28;20042;-77
2022/04/27 08:46:09;;;;;;;2.15;1.10;;;15.30;60.90;;;;;;5006106;28;20034;-77
2022/04/27 08:48:52;;;;;;;1.77;1.05;;;15.30;60.90;;;;;;4996343;28;20040;-78
2022/04/27 08:51:31;;;;;;;2.10;1.15;;;15.30;60.90;;;;;;4980761;28;20058;-78
2022/04/27 08:53:58;;;;;;;3.35;1.10;;;15.40;61.00;;;;;;4999701;28;20050;-77
2022/04/27 08:56:27;;;;;;;1.73;1.00;;;15.40;60.80;;;;;;5006130;28;20044;-77
2022/04/27 08:58:55;;;;;;;1.95;1.10;;;15.40;60.90;;;;;;4999137;28;20129;-79
2022/04/27 09:01:22;;;;;;;2.85;1.30;;;15.40;60.90;;;;;;4987727;28;20034;-77
2022/04/27 09:04:14;;;;;;;3.28;1.10;;;15.40;60.80;;;;;;4982845;28;20060;-78
2022/04/27 09:06:50;;;;;;;2.22;1.00;;;15.40;60.80;;;;;;5000180;28;20515;-78
2022/04/27 09:09:33;;;;;;;2.72;1.20;;;15.40;60.80;;;;;;5024998;28;20038;-77
2022/04/27 09:12:16;;;;;;;2.78;1.20;;;15.40;60.70;;;;;;5016740;28;20057;-77
2022/04/27 09:14:44;;;;;;;1.77;1.05;;;15.40;60.80;;;;;;5005142;28;20503;-78
2022/04/27 09:23:00;;;;;;;1.95;1.00;;;15.40;60.80;;;;;;4989863;28;20068;-76
2022/04/27 09:25:41;;;;;;;1.73;1.10;;;15.40;60.70;;;;;;5000241;28;20046;-76
2022/04/27 09:28:09;;;;;;;2.00;0.98;;;15.50;60.90;;;;;;4997367;28;20045;-77
2022/04/27 09:30:48;;;;;;;2.38;1.20;;;15.50;60.90;;;;;;4976967;28;20064;-76
2022/04/27 09:33:29;;;;;;;1.50;1.00;;;15.50;60.90;;;;;;4994454;28;20674;-76
2022/04/27 09:35:56;;;;;;;3.15;1.23;;;15.50;60.90;;;;;;4997423;28;20034;-77
2022/04/27 09:38:23;;;;;;;1.90;1.00;;;15.50;60.90;;;;;;4997295;28;20068;-77
2022/04/27 09:40:54;;;;;;;2.17;1.20;;;15.50;60.90;;;;;;4992416;28;20054;-76
2022/04/27 09:43:45;;;;;;;1.75;1.13;;;15.50;60.80;;;;;;4996038;28;20535;-76
2022/04/27 09:46:17;;;;;;;3.72;1.17;;;15.50;60.80;;;;;;4998040;28;20049;-77
2022/04/27 09:49:09;;;;;;;2.15;1.10;;;15.50;60.70;;;;;;4992949;28;20088;-76
2022/04/27 09:51:36;;;;;;;3.30;1.08;;;15.50;60.70;;;;;;4996289;28;20046;-80
2022/04/27 09:54:05;;;;;;;1.98;1.17;;;15.50;60.60;;;;;;4996462;28;20073;-79
2022/04/27 09:56:54;;;;;;;2.95;1.20;;;15.50;60.60;;;;;;4998819;28;20051;-77
2022/04/27 09:59:26;;;;;;;;;;;15.50;60.70;;;;;;4996354;28;20046;-76
2022/04/27 10:01:58;;;;;;;1.90;1.00;;;15.50;60.50;;;;;;5003444;28;19925;-75
2022/04/27 10:04:36;;;;;;;1.80;1.17;;;15.50;60.50;;;;;;4985523;28;20050;-76
2022/04/27 10:07:15;;;;;;;2.55;1.10;;;15.50;60.50;;;;;;5007564;28;20049;-76
2022/04/27 10:09:44;;;;;;;2.10;1.08;;;15.50;60.50;;;;;;4991997;28;20049;-76
2022/04/27 10:12:16;;;;;;;1.83;0.95;;;15.50;60.40;;;;;;5008412;28;20403;-76
2022/04/27 10:14:51;;;;;;;2.42;1.33;;;15.50;60.40;;;;;;4981134;28;20045;-77
2022/04/27 10:17:18;;;;;;;1.77;1.10;;;15.60;60.50;;;;;;4992828;28;20045;-77
2022/04/27 10:19:51;;;;;;;3.10;1.30;;;15.60;60.30;;;;;;4996779;28;20495;-75
2022/04/27 10:22:31;;;;;;;4.93;1.45;;;15.60;60.40;;;;;;5003199;28;20049;-74
2022/04/27 10:24:59;;;;;;;4.22;1.15;;;15.60;60.50;;;;;;5000697;28;20114;-75
2022/04/27 10:27:39;;;;;;;3.30;1.08;;;15.60;60.50;;;;;;4998006;28;20042;-76
2022/04/27 10:30:17;;;;;;;2.70;1.02;;;15.60;60.50;;;;;;5003537;28;20121;-75
2022/04/27 10:32:51;;;;;;;5.57;1.27;;;15.60;60.40;;;;;;5003576;28;20053;-74
2022/04/27 10:35:33;;;;;;;1.40;0.95;;;15.60;60.40;;;;;;4999906;28;20054;-75
2022/04/27 10:38:02;;;;;;;4.00;1.10;;;15.60;60.40;;;;;;5002299;28;20041;-74
2022/04/27 10:40:34;;;;;;;3.17;1.00;;;15.60;60.40;;;;;;5000167;28;20045;-75
2022/04/27 10:43:26;;;;;;;1.65;1.10;;;15.60;60.40;;;;;;4984959;28;20132;-75
2022/04/27 10:45:55;;;;;;;3.88;1.20;;;15.60;60.40;;;;;;5001842;28;20053;-76
2022/04/27 10:48:23;;;;;;;2.15;1.20;;;15.60;60.40;;;;;;5002016;28;20065;-76
2022/04/27 10:50:56;;;;;;;1.50;0.90;;;15.60;60.40;;;;;;5002742;28;20689;-75
2022/04/27 10:53:43;;;;;;;4.28;1.20;;;15.60;60.30;;;;;;5003448;28;20176;-76
2022/04/27 10:56:22;;;;;;;2.63;1.15;;;15.60;60.30;;;;;;5000240;28;20045;-76
2022/04/27 10:58:52;;;;;;;3.70;1.30;;;15.60;60.30;;;;;;5005044;28;20046;-75
2022/04/27 11:01:30;;;;;;;1.65;1.02;;;15.70;60.40;;;;;;5004958;28;20076;-76
2022/04/27 11:04:09;;;;;;;2.90;1.17;;;15.60;60.30;;;;;;5006967;28;20049;-76
2022/04/27 11:07:26;;;;;;;3.28;1.17;;;15.70;60.40;;;;;;5004148;28;20117;-77
2022/04/27 11:10:11;;;;;;;2.58;1.23;;;15.70;60.40;;;;;;5021126;28;20041;-76
2022/04/27 11:12:58;;;;;;;1.95;1.05;;;15.70;60.40;;;;;;5011101;28;20658;-76
2022/04/27 11:15:26;;;;;;;3.25;1.13;;;15.70;60.40;;;;;;5013780;28;20110;-76
2022/04/27 11:18:01;;;;;;;5.03;1.38;;;15.70;60.30;;;;;;5008196;28;20049;-78
2022/04/27 11:20:40;;;;;;;3.80;1.38;;;15.70;60.00;;;;;;4996067;28;20132;-77
2022/04/27 11:23:19;;;;;;;3.15;1.33;;;15.70;60.60;;;;;;4991643;28;20139;-77
2022/04/27 11:26:01;;;;;;;4.30;1.40;;;15.70;59.80;;;;;;4998113;28;20038;-77
2022/04/27 11:28:28;;;;;;;7.10;3.65;;;15.70;59.90;;;;;;5001410;28;20121;-72
2022/04/27 11:30:57;;;;;;;6.13;2.50;;;15.60;53.70;;;;;;4999937;28;20100;-76
2022/04/27 11:33:44;;;;;;;4.50;2.10;;;15.50;57.10;;;;;;5001149;28;20127;-77
2022/04/27 11:36:22;;;;;;;5.20;2.10;;;15.50;58.20;;;;;;4997885;28;20041;-75
2022/04/27 11:38:51;;;;;;;6.07;2.10;;;15.60;58.50;;;;;;4983662;28;20070;-75
2022/04/27 11:41:24;;;;;;;4.25;2.00;;;15.60;58.50;;;;;;4995934;28;20045;-75
2022/04/27 11:44:10;;;;;;;3.20;1.98;;;15.60;58.50;;;;;;5000126;28;20468;-77
2022/04/27 11:46:38;;;;;;;2.60;1.80;;;15.60;58.60;;;;;;5000073;28;20056;-76
2022/04/27 11:49:16;;;;;;;4.40;1.70;;;15.60;58.70;;;;;;4985643;28;20715;-76
2022/04/27 11:51:46;;;;;;;2.90;1.70;;;15.60;58.70;;;;;;4983220;28;20161;-76
2022/04/27 11:54:27;;;;;;;2.50;1.70;;;15.70;58.80;;;;;;5001857;28;20052;-76
2022/04/27 11:57:00;;;;;;;6.13;1.60;;;15.70;58.80;;;;;;4988820;28;20077;-77
2022/04/27 11:59:26;;;;;;;;;;;15.70;58.80;;;;;;4980969;28;20526;-76
2022/04/27 12:01:54;;;;;;;4.25;1.60;;;15.70;58.90;;;;;;4982789;28;19922;-76
2022/04/27 12:04:42;;;;;;;2.45;1.30;;;15.70;58.90;;;;;;5002933;28;20049;-76
2022/04/27 12:07:13;;;;;;;3.05;1.40;;;15.60;58.80;;;;;;4993724;28;20030;-76
2022/04/27 12:09:57;;;;;;;3.25;1.40;;;15.70;58.90;;;;;;4997715;28;20038;-75
2022/04/27 12:12:43;;;;;;;3.42;1.50;;;15.70;58.90;;;;;;4990953;28;20628;-77
2022/04/27 12:15:14;;;;;;;1.83;1.20;;;15.70;58.90;;;;;;5000445;28;20129;-75
2022/04/27 12:17:50;;;;;;;4.38;1.42;;;15.70;59.00;;;;;;4986570;28;20096;-75
2022/04/27 12:20:34;;;;;;;4.38;1.40;;;15.70;59.00;;;;;;5015210;28;20049;-74
2022/04/27 12:23:17;;;;;;;2.85;1.38;;;15.70;59.00;;;;;;5011313;28;20091;-75
2022/04/27 12:25:49;;;;;;;2.05;1.30;;;15.70;59.00;;;;;;4995775;28;20520;-76
2022/04/27 12:28:17;;;;;;;2.85;1.30;;;15.70;59.00;;;;;;4994618;28;20137;-76
2022/04/27 12:30:58;;;;;;;2.45;1.30;;;15.70;59.00;;;;;;4990165;28;20050;-75
2022/04/27 12:33:38;;;;;;;2.80;1.10;;;15.70;59.00;;;;;;4991688;28;20057;-76
2022/04/27 12:38:58;;;;;;;3.63;1.40;;;15.70;59.00;;;;;;4985271;28;20413;-75
2022/04/27 12:41:30;;;;;;;2.50;1.20;;;15.70;59.00;;;;;;4999673;28;20037;-76
2022/04/27 12:44:17;;;;;;;2.38;1.10;;;15.70;59.10;;;;;;4999428;28;20046;-76
2022/04/27 12:46:57;;;;;;;2.95;1.30;;;15.70;59.60;;;;;;4997201;28;20202;-75
2022/04/27 12:49:44;;;;;;;2.08;1.27;;;15.70;59.10;;;;;;5001394;28;20127;-75
2022/04/27 12:52:16;;;;;;;2.22;1.30;;;15.70;59.10;;;;;;4997555;28;20121;-76
2022/04/27 12:55:03;;;;;;;3.72;1.35;;;15.70;59.00;;;;;;4982706;28;20038;-77
2022/04/27 12:57:43;;;;;;;3.05;1.25;;;15.80;59.10;;;;;;5001720;28;20050;-76
2022/04/27 13:00:16;;;;;;;2.42;1.30;;;15.70;59.10;;;;;;5003513;28;20073;-75
2022/04/27 13:02:45;;;;;;;3.03;1.27;;;15.70;59.10;;;;;;5006266;28;20100;-76
2022/04/27 13:05:15;;;;;;;2.35;1.42;;;15.70;59.10;;;;;;5019476;28;20056;-76
2022/04/27 13:07:49;;;;;;;2.53;1.30;;;15.70;59.10;;;;;;5002991;28;20057;-76
2022/04/27 13:13:03;;;;;;;1.80;1.17;;;15.80;59.20;;;;;;4993406;28;20104;-75
2022/04/27 13:15:47;;;;;;;2.10;1.30;;;15.80;59.20;;;;;;4999021;28;20034;-77
2022/04/27 13:18:15;;;;;;;1.80;1.08;;;15.80;59.20;;;;;;4999415;28;20049;-76
2022/04/27 13:20:43;;;;;;;1.95;1.10;;;15.80;59.20;;;;;;5000136;28;20037;-75
2022/04/27 13:23:14;;;;;;;2.25;1.35;;;15.80;59.20;;;;;;4993788;28;20048;-75
2022/04/27 13:25:41;;;;;;;2.20;1.20;;;15.80;59.10;;;;;;4988526;28;20041;-76
2022/04/27 13:28:08;;;;;;;2.17;1.10;;;15.80;59.20;;;;;;4981458;28;20054;-76
2022/04/27 13:30:37;;;;;;;2.78;1.23;;;15.80;59.20;;;;;;4986106;28;20125;-76
2022/04/27 13:33:04;;;;;;;1.60;1.00;;;15.80;59.20;;;;;;4989062;28;20109;-75
2022/04/27 13:35:31;;;;;;;2.47;1.30;;;15.80;59.20;;;;;;4993140;28;20046;-75
2022/04/27 13:37:58;;;;;;;5.05;2.95;;;15.80;59.20;;;;;;5000249;28;20046;-77
2022/04/27 13:40:26;;;;;;;2.75;1.40;;;15.70;57.50;;;;;;5000057;28;20045;-75
2022/04/27 13:42:55;;;;;;;5.13;1.50;;;15.80;59.00;;;;;;5003675;28;20037;-77